KMAE

Madera Municipal Airport

Madera, California, USA
METAR KMAE 212253Z AUTO 31008KT 7SM CLR 34/12 A2988 RMK AO2 SLP116 T03390117
Observed Flight Rules
Aug-21 @ 22:53 UTC (52 minutes ago) Visual Flight Rules
Wind Visibility Clouds
310° at 8 knots 7 miles
  • Clear skies
Temperatures Readings
Current 34°C / 93°F
Dewpoint 12°C / 54°F
Humidity 26%
Altimeter 29.88" Hg
Pressure 1011.6 hPa
Elevation 77
METAR KMAE 212253Z AUTO 31008KT 7SM CLR 34/12 A2988 RMK AO2 SLP116 T03390117
Observed Flight Rules
Aug-21 @ 22:53 UTC
(52 minutes ago)
VFR
Wind Visibility
310° at 8 knots 7 miles
Clouds
  • Clear skies
Temperature Dewpoint
34°C / 93°F 12°C / 54°F
Humidity Altimeter Pressure
26% 29.88" Hg 1011.6 hPa